Time;durP1;ratioP1;P1;durP2;ratioP2;P2;SDS_P1;SDS_P2;PMS_P1;PMS_P2;Temp;Humidity;BMP_temperature;BMP_pressure;BME280_temperature;BME280_humidity;BME280_pressure;Samples;Min_cycle;Max_cycle;Signal;HPM_P1;HPM_P2
2021/05/14 00:00:48;;;;;;;8.18;4.40;;;12.40;95.90;;;;;;5070423;28;20045;-86
2021/05/14 00:03:14;;;;;;;4.72;3.83;;;12.40;96.10;;;;;;5066965;28;20033;-86
2021/05/14 00:05:40;;;;;;;5.22;3.83;;;12.50;95.80;;;;;;5071775;28;20044;-86
2021/05/14 00:08:06;;;;;;;8.10;4.35;;;12.40;95.80;;;;;;5053698;28;20047;-86
2021/05/14 00:10:38;;;;;;;7.97;4.47;;;12.50;95.80;;;;;;5078394;28;20036;-86
2021/05/14 00:13:05;;;;;;;7.22;4.25;;;12.40;95.80;;;;;;5073089;28;20033;-86
2021/05/14 00:15:31;;;;;;;6.90;4.88;;;12.50;95.80;;;;;;5051684;28;20059;-86
2021/05/14 00:17:56;;;;;;;5.70;4.10;;;12.50;95.90;;;;;;5067914;28;20127;-86
2021/05/14 00:20:22;;;;;;;6.88;4.57;;;12.50;95.80;;;;;;5063498;28;20037;-87
2021/05/14 00:22:47;;;;;;;7.70;4.18;;;12.50;95.80;;;;;;5078254;28;20446;-87
2021/05/14 00:25:13;;;;;;;5.72;4.65;;;12.50;95.80;;;;;;5084478;28;20052;-87
2021/05/14 00:27:40;;;;;;;8.65;4.80;;;12.50;95.80;;;;;;5079376;28;20055;-87
2021/05/14 00:30:08;;;;;;;8.93;4.68;;;12.50;95.70;;;;;;5046208;28;20044;-87
2021/05/14 00:32:34;;;;;;;6.82;3.97;;;12.50;95.70;;;;;;5065596;28;20608;-86
2021/05/14 00:35:00;;;;;;;8.23;4.68;;;12.60;95.70;;;;;;5060777;28;20362;-86
2021/05/14 00:37:25;;;;;;;6.32;4.25;;;12.60;95.70;;;;;;5041906;28;20124;-87
2021/05/14 00:39:51;;;;;;;7.25;4.07;;;12.60;95.60;;;;;;5069227;28;20051;-86
2021/05/14 00:42:16;;;;;;;9.40;4.82;;;12.60;95.40;;;;;;5072817;28;20036;-87
2021/05/14 00:44:46;;;;;;;5.63;4.18;;;12.60;95.40;;;;;;5042009;28;20058;-87
2021/05/14 00:47:14;;;;;;;5.93;4.45;;;12.60;95.30;;;;;;5091408;28;20500;-87
2021/05/14 00:49:39;;;;;;;6.03;4.00;;;12.60;95.30;;;;;;5071134;28;20408;-86
2021/05/14 00:52:08;;;;;;;6.93;4.45;;;12.60;95.20;;;;;;5056251;28;20037;-86
2021/05/14 00:54:34;;;;;;;5.20;3.65;;;12.60;95.20;;;;;;5071519;28;20044;-86
2021/05/14 00:57:00;;;;;;;4.72;4.07;;;12.60;95.20;;;;;;5041715;28;20052;-86
2021/05/14 00:59:26;;;;;;;4.82;3.75;;;12.60;95.20;;;;;;5059198;28;20036;-86
2021/05/14 01:01:52;;;;;;;5.13;3.97;;;12.60;95.20;;;;;;5045921;28;20043;-86
2021/05/14 01:04:17;;;;;;;3.90;3.30;;;12.60;95.20;;;;;;5064995;28;20033;-87
2021/05/14 01:06:43;;;;;;;4.13;3.60;;;12.50;95.20;;;;;;5066651;28;20281;-87
2021/05/14 01:09:09;;;;;;;4.45;3.90;;;12.60;95.20;;;;;;5080339;28;20155;-87
2021/05/14 01:11:35;;;;;;;4.78;3.35;;;12.60;95.20;;;;;;5068928;28;20043;-87
2021/05/14 01:14:00;;;;;;;6.57;3.78;;;12.60;95.10;;;;;;5065417;28;20029;-86
2021/05/14 01:16:27;;;;;;;4.35;3.53;;;12.60;95.10;;;;;;5057207;28;20411;-86
2021/05/14 01:18:54;;;;;;;7.72;3.67;;;12.60;95.10;;;;;;5069952;28;20139;-86
2021/05/14 01:21:21;;;;;;;4.60;3.47;;;12.70;95.10;;;;;;5069601;28;20047;-86
2021/05/14 01:23:47;;;;;;;5.45;4.07;;;12.60;95.30;;;;;;5053415;28;20037;-87
2021/05/14 01:26:14;;;;;;;7.93;4.63;;;12.70;95.40;;;;;;5069271;28;20063;-88
2021/05/14 01:28:40;;;;;;;7.53;4.47;;;12.70;95.50;;;;;;5045357;28;20051;-88
2021/05/14 01:31:07;;;;;;;4.65;3.83;;;12.70;95.50;;;;;;5065316;28;20148;-88
2021/05/14 01:33:34;;;;;;;6.50;4.63;;;12.70;95.60;;;;;;5061502;28;20039;-87
2021/05/14 01:36:01;;;;;;;6.05;4.00;;;12.60;95.60;;;;;;5058174;28;20055;-85
2021/05/14 01:38:26;;;;;;;7.88;4.80;;;12.60;95.60;;;;;;5053285;28;20074;-85
2021/05/14 01:40:52;;;;;;;7.60;5.25;;;12.70;95.70;;;;;;5066395;28;20396;-85
2021/05/14 01:43:18;;;;;;;5.80;3.97;;;12.60;95.70;;;;;;5065511;28;20090;-86
2021/05/14 01:45:44;;;;;;;7.18;4.40;;;12.70;95.80;;;;;;5064813;28;20063;-85
2021/05/14 01:48:10;;;;;;;6.25;4.88;;;12.70;95.90;;;;;;5075789;28;20048;-86
2021/05/14 01:50:35;;;;;;;7.00;4.85;;;12.70;96.00;;;;;;5077289;28;20033;-86
2021/05/14 01:53:01;;;;;;;10.43;5.85;;;12.70;96.00;;;;;;5053077;28;20039;-85
2021/05/14 01:55:26;;;;;;;7.88;5.78;;;12.70;96.00;;;;;;5088560;28;20036;-85
2021/05/14 01:57:52;;;;;;;8.30;4.57;;;12.70;95.90;;;;;;5070528;28;20067;-85
2021/05/14 02:00:18;;;;;;;8.90;5.18;;;12.70;95.90;;;;;;5069489;28;20048;-86
2021/05/14 02:02:44;;;;;;;6.78;4.88;;;12.70;95.90;;;;;;5040172;28;20058;-86
2021/05/14 02:05:10;;;;;;;7.38;5.07;;;12.60;95.90;;;;;;5083887;28;20201;-86
2021/05/14 02:07:35;;;;;;;13.10;5.20;;;12.60;96.00;;;;;;5062236;28;20047;-86
2021/05/14 02:10:01;;;;;;;6.30;4.78;;;12.60;96.00;;;;;;5060726;28;20608;-86
2021/05/14 02:12:26;;;;;;;6.22;5.10;;;12.60;96.10;;;;;;5082295;28;20043;-87
2021/05/14 02:14:52;;;;;;;7.15;5.75;;;12.60;96.10;;;;;;5065091;28;20098;-86
2021/05/14 02:17:17;;;;;;;6.40;5.28;;;12.60;96.10;;;;;;5070402;28;20332;-87
2021/05/14 02:19:43;;;;;;;11.52;6.07;;;12.60;96.10;;;;;;5042054;28;20131;-86
2021/05/14 02:22:08;;;;;;;9.07;5.75;;;12.50;96.10;;;;;;5048406;28;20033;-86
2021/05/14 02:24:34;;;;;;;8.43;5.15;;;12.50;96.20;;;;;;5063383;28;20044;-87
2021/05/14 02:27:00;;;;;;;7.25;5.45;;;12.50;96.30;;;;;;5053138;28;20106;-86
2021/05/14 02:29:25;;;;;;;9.15;6.05;;;12.50;96.30;;;;;;5049954;28;20040;-87
2021/05/14 02:31:51;;;;;;;8.02;5.97;;;12.50;96.30;;;;;;5086777;28;20131;-86
2021/05/14 02:34:17;;;;;;;8.70;5.47;;;12.50;96.40;;;;;;5064015;28;20032;-86
2021/05/14 02:36:42;;;;;;;8.30;5.45;;;12.50;96.40;;;;;;5067645;28;20037;-87
2021/05/14 02:39:09;;;;;;;7.88;5.60;;;12.50;96.40;;;;;;5063945;28;20087;-86
2021/05/14 02:41:38;;;;;;;10.15;6.80;;;12.50;96.40;;;;;;5049323;28;20402;-86
2021/05/14 02:44:05;;;;;;;9.18;6.15;;;12.50;96.50;;;;;;5042055;28;20434;-87
2021/05/14 02:46:34;;;;;;;8.05;5.55;;;12.50;96.50;;;;;;5046336;28;20380;-87
2021/05/14 02:49:00;;;;;;;8.10;6.32;;;12.50;96.60;;;;;;5044130;28;20072;-87
2021/05/14 02:51:26;;;;;;;10.07;6.60;;;12.50;96.60;;;;;;5063122;28;20079;-86
2021/05/14 02:53:51;;;;;;;9.90;6.45;;;12.50;96.60;;;;;;5048201;28;20041;-86
2021/05/14 02:56:17;;;;;;;6.78;4.60;;;12.50;96.70;;;;;;5062933;28;20040;-87
2021/05/14 02:58:43;;;;;;;7.35;5.78;;;12.50;96.70;;;;;;5082342;28;20109;-86
2021/05/14 03:01:09;;;;;;;9.38;6.30;;;12.50;96.70;;;;;;5084684;28;20056;-86
2021/05/14 03:03:34;;;;;;;8.98;5.90;;;12.60;96.70;;;;;;5048286;28;20041;-87
2021/05/14 03:06:00;;;;;;;8.43;5.45;;;12.60;96.70;;;;;;5051656;28;20036;-87
2021/05/14 03:08:25;;;;;;;9.30;5.97;;;12.60;96.70;;;;;;5061183;28;20047;-87
2021/05/14 03:10:51;;;;;;;9.90;5.47;;;12.60;96.70;;;;;;5060760;28;20041;-87
2021/05/14 03:13:16;;;;;;;9.75;6.50;;;12.60;96.60;;;;;;5045694;28;20040;-87
2021/05/14 03:15:42;;;;;;;10.73;6.43;;;12.50;96.60;;;;;;5074426;28;20036;-87
2021/05/14 03:18:07;;;;;;;8.93;6.22;;;12.50;96.60;;;;;;5049369;28;20041;-86
2021/05/14 03:20:33;;;;;;;9.77;6.70;;;12.50;96.60;;;;;;5048332;28;20130;-86
2021/05/14 03:22:58;;;;;;;10.10;6.43;;;12.50;96.60;;;;;;5066257;28;20124;-87
2021/05/14 03:25:24;;;;;;;11.80;6.70;;;12.50;96.60;;;;;;5059191;28;20119;-86
2021/05/14 03:27:49;;;;;;;8.65;6.95;;;12.50;96.80;;;;;;5053658;28;20423;-86
2021/05/14 03:30:16;;;;;;;11.23;5.85;;;12.50;96.60;;;;;;5070909;28;20037;-87
2021/05/14 03:32:41;;;;;;;9.02;5.78;;;12.50;96.60;;;;;;5054722;28;20049;-87
2021/05/14 03:35:08;;;;;;;10.40;6.80;;;12.50;96.60;;;;;;5069439;28;20029;-86
2021/05/14 03:37:34;;;;;;;8.82;5.60;;;12.50;96.60;;;;;;5061406;28;20272;-86
2021/05/14 03:40:04;;;;;;;12.63;7.65;;;12.50;96.60;;;;;;5049430;28;20052;-86
2021/05/14 03:42:30;;;;;;;7.85;6.05;;;12.50;96.60;;;;;;5081303;28;20055;-87
2021/05/14 03:44:56;;;;;;;10.88;6.18;;;12.50;96.60;;;;;;5061896;28;20041;-87
2021/05/14 03:47:25;;;;;;;8.25;6.03;;;12.60;96.70;;;;;;5053412;28;20412;-85
2021/05/14 03:49:51;;;;;;;8.98;6.65;;;12.60;96.80;;;;;;5072601;28;20032;-87
2021/05/14 03:52:16;;;;;;;7.50;5.88;;;12.60;96.70;;;;;;5075912;28;20047;-86
2021/05/14 03:54:42;;;;;;;7.65;6.10;;;12.60;96.70;;;;;;5065158;28;20041;-87
2021/05/14 03:57:08;;;;;;;9.27;6.60;;;12.70;96.70;;;;;;5052771;28;20058;-86
2021/05/14 03:59:34;;;;;;;10.00;6.93;;;12.70;96.70;;;;;;5052493;28;20047;-87
2021/05/14 04:02:00;;;;;;;9.50;6.70;;;12.70;96.70;;;;;;5055469;28;20048;-86
2021/05/14 04:04:26;;;;;;;13.85;6.50;;;12.70;96.60;;;;;;5069935;28;20033;-87
2021/05/14 04:06:52;;;;;;;10.02;6.78;;;12.70;96.70;;;;;;5067483;28;20055;-86
2021/05/14 04:09:25;;;;;;;11.82;7.20;;;12.70;96.70;;;;;;5071029;28;20124;-86
2021/05/14 04:14:32;;;;;;;8.93;7.20;;;12.70;96.80;;;;;;5066597;28;20079;-86
2021/05/14 04:17:00;;;;;;;10.85;7.13;;;12.70;96.90;;;;;;5069302;28;20411;-86
2021/05/14 04:19:26;;;;;;;8.52;7.05;;;12.80;96.90;;;;;;5073209;28;20032;-87
2021/05/14 04:21:54;;;;;;;13.32;6.90;;;12.80;96.90;;;;;;5073325;28;20638;-86
2021/05/14 04:24:21;;;;;;;12.85;7.47;;;12.80;96.90;;;;;;5059165;28;20036;-87
2021/05/14 04:26:50;;;;;;;9.23;6.88;;;12.80;97.10;;;;;;5066792;28;20071;-87
2021/05/14 04:29:17;;;;;;;9.40;6.70;;;12.80;96.90;;;;;;5062751;28;20055;-86
2021/05/14 04:31:44;;;;;;;9.98;6.90;;;12.90;96.90;;;;;;5072268;28;20063;-87
2021/05/14 04:34:11;;;;;;;9.75;6.75;;;12.90;97.00;;;;;;5065347;28;20541;-87
2021/05/14 04:36:37;;;;;;;10.65;7.18;;;13.00;97.00;;;;;;5056133;28;20033;-86
2021/05/14 04:39:04;;;;;;;9.63;6.65;;;13.00;97.00;;;;;;5055416;28;20123;-87
2021/05/14 04:41:29;;;;;;;8.52;6.63;;;13.10;97.00;;;;;;5072265;28;20036;-86
2021/05/14 04:43:54;;;;;;;8.93;6.50;;;13.10;96.70;;;;;;5054141;28;20043;-88
2021/05/14 04:46:20;;;;;;;8.00;6.57;;;13.10;96.60;;;;;;5049751;28;20745;-86
2021/05/14 04:48:45;;;;;;;8.77;6.35;;;13.20;96.60;;;;;;5073109;28;20048;-86
2021/05/14 04:51:11;;;;;;;9.35;7.03;;;13.20;96.50;;;;;;5051632;28;20678;-87
2021/05/14 04:53:37;;;;;;;10.07;6.88;;;13.20;96.40;;;;;;5053569;28;20341;-86
2021/05/14 04:56:04;;;;;;;8.85;6.45;;;13.20;96.50;;;;;;5085095;28;20091;-87
2021/05/14 04:58:30;;;;;;;10.25;6.82;;;13.20;96.60;;;;;;5056952;28;20094;-87
2021/05/14 05:00:55;;;;;;;7.03;6.32;;;13.20;96.60;;;;;;5074741;28;20440;-87
2021/05/14 05:03:21;;;;;;;9.43;6.53;;;13.20;96.60;;;;;;5077792;28;20087;-86
2021/05/14 05:05:48;;;;;;;11.18;7.22;;;13.30;96.30;;;;;;5056491;28;20173;-87
2021/05/14 05:08:13;;;;;;;10.57;6.03;;;13.30;96.20;;;;;;5074690;28;20032;-87
2021/05/14 05:10:39;;;;;;;9.13;6.30;;;13.20;96.10;;;;;;5074124;28;20047;-87
2021/05/14 05:13:04;;;;;;;10.82;6.57;;;13.20;96.20;;;;;;5057462;28;20028;-87
2021/05/14 05:15:30;;;;;;;7.80;6.53;;;13.20;96.20;;;;;;5056708;28;20597;-87
2021/05/14 05:17:55;;;;;;;13.38;6.13;;;13.20;96.40;;;;;;5075508;28;20070;-88
2021/05/14 05:20:22;;;;;;;10.30;6.95;;;13.30;96.30;;;;;;5068223;28;20206;-87
2021/05/14 05:22:47;;;;;;;10.20;7.03;;;13.30;96.30;;;;;;5049583;28;20044;-88
2021/05/14 05:25:13;;;;;;;13.82;7.75;;;13.30;96.40;;;;;;5069786;28;20032;-88
2021/05/14 05:27:39;;;;;;;8.63;6.40;;;13.30;96.10;;;;;;5058860;28;20047;-88
2021/05/14 05:30:05;;;;;;;8.68;6.68;;;13.30;96.20;;;;;;5064996;28;20497;-87
2021/05/14 05:32:30;;;;;;;9.13;6.45;;;13.20;96.30;;;;;;5054286;28;20033;-87
2021/05/14 05:34:57;;;;;;;10.15;6.65;;;13.20;96.50;;;;;;5058757;28;20265;-87
2021/05/14 05:37:23;;;;;;;7.88;6.68;;;13.30;96.40;;;;;;5076265;28;20055;-87
2021/05/14 05:39:48;;;;;;;9.45;6.15;;;13.30;96.40;;;;;;5075174;28;20032;-87
2021/05/14 05:42:14;;;;;;;8.70;6.38;;;13.30;96.30;;;;;;5076046;28;20050;-86
2021/05/14 05:44:39;;;;;;;8.57;6.60;;;13.40;96.20;;;;;;5075793;28;20040;-88
2021/05/14 05:47:05;;;;;;;6.93;5.53;;;13.40;96.60;;;;;;5075655;28;20355;-86
2021/05/14 05:49:30;;;;;;;9.77;6.05;;;13.50;96.00;;;;;;5057207;28;20051;-87
2021/05/14 05:51:56;;;;;;;14.27;6.60;;;13.50;95.90;;;;;;5049612;28;20392;-87
2021/05/14 05:54:21;;;;;;;6.53;5.82;;;13.50;95.60;;;;;;5050387;28;20055;-88
2021/05/14 05:56:49;;;;;;;10.07;6.07;;;13.50;95.50;;;;;;5068525;28;20285;-87
2021/05/14 05:59:16;;;;;;;8.63;5.93;;;13.50;95.60;;;;;;5053812;28;20033;-87
2021/05/14 06:01:42;;;;;;;8.60;5.97;;;13.50;95.80;;;;;;5072804;28;20399;-88
2021/05/14 06:04:08;;;;;;;7.55;6.45;;;13.50;95.90;;;;;;5067506;28;20048;-88
2021/05/14 06:06:33;;;;;;;8.73;6.30;;;13.60;95.50;;;;;;5064283;28;20051;-88
2021/05/14 06:08:58;;;;;;;8.88;6.15;;;13.70;95.70;;;;;;5051826;28;20400;-87
2021/05/14 06:11:24;;;;;;;9.95;6.13;;;13.70;95.00;;;;;;5073902;28;20036;-86
2021/05/14 06:13:50;;;;;;;9.02;5.78;;;13.80;95.30;;;;;;5043459;28;20124;-87
2021/05/14 06:16:17;;;;;;;6.78;5.70;;;13.80;94.80;;;;;;5073762;28;20058;-87
2021/05/14 06:18:46;;;;;;;8.57;5.80;;;13.80;94.80;;;;;;5072797;28;20037;-87
2021/05/14 06:21:12;;;;;;;7.80;5.88;;;13.80;94.90;;;;;;5066786;28;20036;-88
2021/05/14 06:23:37;;;;;;;9.23;5.90;;;13.80;94.80;;;;;;5073088;28;20034;-87
2021/05/14 06:26:03;;;;;;;7.55;5.20;;;13.80;94.60;;;;;;5049544;28;20083;-86
2021/05/14 06:28:29;;;;;;;7.95;5.55;;;13.90;94.70;;;;;;5070975;28;20041;-87
2021/05/14 06:30:54;;;;;;;7.03;5.13;;;13.90;94.60;;;;;;5046965;28;20509;-87
2021/05/14 06:33:20;;;;;;;8.18;6.00;;;13.90;94.80;;;;;;5077790;28;20049;-87
2021/05/14 06:35:48;;;;;;;12.93;5.75;;;14.00;95.00;;;;;;5063483;28;20406;-87
2021/05/14 06:38:13;;;;;;;9.80;5.55;;;14.00;95.20;;;;;;5068745;28;20036;-87
2021/05/14 06:40:39;;;;;;;8.88;6.03;;;14.10;94.60;;;;;;5081498;28;20098;-87
2021/05/14 06:43:04;;;;;;;9.35;5.93;;;14.10;94.40;;;;;;5077109;28;20131;-87
2021/05/14 06:45:30;;;;;;;8.07;5.60;;;14.10;94.80;;;;;;5078719;28;20036;-86
2021/05/14 06:48:07;;;;;;;7.68;5.30;;;14.20;94.70;;;;;;5056523;28;20113;-87
2021/05/14 06:50:33;;;;;;;11.82;5.95;;;14.20;94.60;;;;;;5053487;28;20032;-87
2021/05/14 06:53:00;;;;;;;12.85;6.00;;;14.30;94.40;;;;;;5052085;28;20033;-86
2021/05/14 06:55:25;;;;;;;10.32;6.15;;;14.40;94.10;;;;;;5059019;28;20036;-86
2021/05/14 06:57:51;;;;;;;9.48;5.93;;;14.40;94.10;;;;;;5085631;28;20063;-86
2021/05/14 07:00:18;;;;;;;7.20;4.35;;;14.50;93.90;;;;;;5053603;28;20051;-87
2021/05/14 07:02:45;;;;;;;6.85;4.50;;;14.60;93.80;;;;;;5077896;28;20093;-87
2021/05/14 07:05:14;;;;;;;8.18;4.07;;;14.70;94.00;;;;;;5056452;28;20447;-88
2021/05/14 07:07:41;;;;;;;8.50;6.05;;;14.80;92.00;;;;;;5071018;28;20103;-87
2021/05/14 07:10:07;;;;;;;5.93;4.55;;;14.70;92.80;;;;;;5050160;28;20033;-87
2021/05/14 07:12:34;;;;;;;5.55;4.22;;;14.80;92.90;;;;;;5055780;28;20119;-87
2021/05/14 07:15:00;;;;;;;8.20;4.88;;;14.70;92.40;;;;;;5076100;28;20028;-87
2021/05/14 07:17:25;;;;;;;7.43;5.05;;;14.80;92.20;;;;;;5049970;28;20048;-87
2021/05/14 07:19:51;;;;;;;6.57;4.68;;;14.80;92.30;;;;;;5049976;28;20040;-88
2021/05/14 07:22:16;;;;;;;8.65;5.45;;;14.80;91.70;;;;;;5054166;28;20399;-88
2021/05/14 07:24:42;;;;;;;7.30;3.63;;;14.80;92.20;;;;;;5056884;28;20045;-87
2021/05/14 07:27:08;;;;;;;5.00;3.88;;;14.90;91.80;;;;;;5060391;28;20036;-87
2021/05/14 07:29:33;;;;;;;4.53;2.95;;;14.90;91.50;;;;;;5076052;28;20036;-87
2021/05/14 07:31:59;;;;;;;7.60;3.55;;;14.90;91.60;;;;;;5060015;28;20036;-86
2021/05/14 07:34:24;;;;;;;6.65;3.40;;;14.90;91.30;;;;;;5077043;28;20067;-87
2021/05/14 07:36:50;;;;;;;5.35;3.35;;;15.00;91.20;;;;;;5061445;28;20115;-87
2021/05/14 07:39:15;;;;;;;5.03;3.60;;;15.10;92.00;;;;;;5072730;28;20052;-87
2021/05/14 07:41:41;;;;;;;7.18;3.47;;;15.20;92.20;;;;;;5060823;28;20125;-86
2021/05/14 07:44:06;;;;;;;7.32;4.43;;;15.40;91.90;;;;;;5060228;28;20040;-88
2021/05/14 07:46:32;;;;;;;9.35;5.10;;;15.40;92.00;;;;;;5076576;28;20049;-86
2021/05/14 07:48:57;;;;;;;6.90;4.32;;;15.60;92.00;;;;;;5060118;28;20040;-86
2021/05/14 07:51:23;;;;;;;6.55;4.30;;;15.60;90.30;;;;;;5077863;28;20115;-86
2021/05/14 07:53:48;;;;;;;9.05;4.55;;;15.60;90.90;;;;;;5060384;28;20036;-86
2021/05/14 07:56:14;;;;;;;7.38;5.13;;;15.70;91.50;;;;;;5078208;28;20059;-87
2021/05/14 07:58:39;;;;;;;8.75;5.07;;;15.70;90.10;;;;;;5061025;28;20045;-88
2021/05/14 08:01:05;;;;;;;8.13;5.68;;;15.80;90.40;;;;;;5059166;28;20032;-87
2021/05/14 08:03:30;;;;;;;9.43;5.55;;;15.70;91.00;;;;;;5077664;28;20089;-86
2021/05/14 08:05:56;;;;;;;7.80;4.78;;;15.70;90.90;;;;;;5078139;28;20139;-89
2021/05/14 08:08:23;;;;;;;8.95;4.78;;;15.80;90.20;;;;;;5078310;28;20036;-89
2021/05/14 08:10:54;;;;;;;8.23;5.57;;;15.90;90.40;;;;;;5061228;28;20043;-90
2021/05/14 08:13:20;;;;;;;8.88;4.22;;;16.00;90.50;;;;;;5061863;28;20037;-90
2021/05/14 08:15:46;;;;;;;9.82;5.53;;;15.90;88.30;;;;;;5079076;28;20044;-89
2021/05/14 08:18:12;;;;;;;7.85;5.05;;;16.00;88.90;;;;;;5061023;28;20036;-89
2021/05/14 08:20:40;;;;;;;6.22;4.38;;;16.00;87.80;;;;;;5078826;28;20422;-88
2021/05/14 08:23:07;;;;;;;7.20;4.80;;;16.10;90.40;;;;;;5062834;28;20055;-91
2021/05/14 08:25:32;;;;;;;6.78;5.13;;;16.30;89.40;;;;;;5061661;28;20036;-88
2021/05/14 08:27:58;;;;;;;8.10;4.65;;;16.40;87.50;;;;;;5061039;28;20055;-90
2021/05/14 08:30:23;;;;;;;5.55;3.83;;;16.50;87.90;;;;;;5061787;28;20120;-89
2021/05/14 08:32:49;;;;;;;6.13;3.92;;;16.60;87.20;;;;;;5078843;28;20352;-93
2021/05/14 08:35:14;;;;;;;7.20;4.20;;;16.60;84.30;;;;;;5078855;28;20037;-90
2021/05/14 08:37:41;;;;;;;6.47;4.97;;;16.70;86.90;;;;;;5061527;28;20040;-90
2021/05/14 08:40:08;;;;;;;9.52;4.43;;;16.80;86.10;;;;;;5060753;28;20048;-92
2021/05/14 08:42:39;;;;;;;8.00;4.05;;;17.00;86.70;;;;;;5062489;28;20040;-92
2021/05/14 08:45:06;;;;;;;4.43;3.80;;;17.10;83.70;;;;;;5062656;28;20043;-91
2021/05/14 08:47:32;;;;;;;4.75;3.45;;;17.10;83.80;;;;;;5079133;28;20108;-92
2021/05/14 08:50:01;;;;;;;3.95;3.25;;;17.20;81.90;;;;;;5062378;28;20392;-94
2021/05/14 08:52:28;;;;;;;3.05;2.67;;;17.30;80.90;;;;;;5062590;28;20098;-93
2021/05/14 08:55:00;;;;;;;4.85;3.92;;;17.30;81.90;;;;;;5062062;28;20055;-91
2021/05/14 08:57:26;;;;;;;5.70;3.78;;;17.30;81.40;;;;;;5060962;28;20113;-89
2021/05/14 08:59:52;;;;;;;6.43;3.72;;;17.30;80.20;;;;;;5061231;28;20048;-91
2021/05/14 09:02:18;;;;;;;4.35;3.03;;;17.20;81.90;;;;;;5078779;28;20079;-93
2021/05/14 09:04:44;;;;;;;5.63;3.53;;;17.20;81.80;;;;;;5061950;28;20032;-87
2021/05/14 09:07:18;;;;;;;5.57;3.33;;;17.20;81.30;;;;;;5060652;28;20042;-92
2021/05/14 09:10:13;;;;;;;5.90;3.90;;;17.20;82.20;;;;;;5061880;28;20036;-92
2021/05/14 09:12:41;;;;;;;6.30;3.20;;;17.20;80.20;;;;;;5025525;28;20033;-93
2021/05/14 09:15:32;;;;;;;4.32;3.42;;;17.30;81.10;;;;;;5059316;28;20041;-92
2021/05/14 09:18:02;;;;;;;5.75;2.50;;;17.40;80.60;;;;;;5041700;28;20037;-92
2021/05/14 09:20:36;;;;;;;5.18;2.97;;;17.40;80.60;;;;;;5042729;28;20060;-93
2021/05/14 09:23:28;;;;;;;5.45;3.35;;;17.60;79.80;;;;;;5041790;28;20044;-93
2021/05/14 09:26:09;;;;;;;4.88;3.80;;;17.70;79.40;;;;;;5049305;28;20032;-94
2021/05/14 09:28:38;;;;;;;6.07;3.15;;;17.70;81.50;;;;;;5061846;28;20067;-92
2021/05/14 09:31:05;;;;;;;5.60;3.63;;;17.80;78.20;;;;;;5061954;28;20039;-92
2021/05/14 09:33:32;;;;;;;5.72;3.42;;;17.90;78.70;;;;;;5061904;28;20041;-91
2021/05/14 09:36:02;;;;;;;5.07;3.92;;;17.80;79.80;;;;;;5061741;28;20036;-95
2021/05/14 09:38:37;;;;;;;7.70;4.00;;;17.80;78.70;;;;;;5079431;28;20398;-94
2021/05/14 09:41:03;;;;;;;4.95;3.65;;;17.80;79.70;;;;;;5061947;28;20101;-95
2021/05/14 09:43:29;;;;;;;5.15;4.60;;;17.80;79.40;;;;;;5062255;28;20040;-94
2021/05/14 09:45:54;;;;;;;3.70;3.40;;;17.70;80.20;;;;;;5062095;28;20044;-94
2021/05/14 09:51:17;;;;;;;5.18;4.13;;;17.50;79.40;;;;;;5068368;28;20107;-95
2021/05/14 09:53:42;;;;;;;8.23;4.03;;;17.50;78.20;;;;;;5062052;28;20141;-94
2021/05/14 09:56:14;;;;;;;4.68;4.05;;;17.50;80.60;;;;;;5060925;28;20040;-94
2021/05/14 09:58:39;;;;;;;6.43;4.53;;;17.60;79.40;;;;;;5061447;28;20044;-92
2021/05/14 10:01:06;;;;;;;5.70;3.85;;;17.70;80.00;;;;;;5061182;28;20282;-89
2021/05/14 10:03:34;;;;;;;5.55;4.13;;;17.70;78.80;;;;;;5060690;28;20631;-91
2021/05/14 10:06:03;;;;;;;4.97;4.28;;;17.70;80.00;;;;;;5061177;28;20410;-91
2021/05/14 10:08:31;;;;;;;9.10;5.03;;;17.60;78.30;;;;;;5059116;28;20040;-89
2021/05/14 10:11:01;;;;;;;5.20;4.70;;;17.60;79.80;;;;;;5070915;28;20403;-88
2021/05/14 10:13:29;;;;;;;7.32;5.15;;;17.60;80.90;;;;;;5055946;28;20103;-87
2021/05/14 10:15:55;;;;;;;4.85;4.25;;;17.60;81.40;;;;;;5073732;28;20033;-88
2021/05/14 10:18:22;;;;;;;5.95;5.35;;;17.50;81.60;;;;;;5079887;28;20622;-86
2021/05/14 10:20:50;;;;;;;7.28;5.28;;;17.60;80.80;;;;;;5072761;28;20115;-89
2021/05/14 10:23:17;;;;;;;7.57;5.68;;;17.50;80.30;;;;;;5074804;28;20043;-85
2021/05/14 10:25:48;;;;;;;6.53;5.82;;;17.50;81.30;;;;;;5058630;28;20048;-87
2021/05/14 10:28:20;;;;;;;8.32;5.45;;;17.50;81.20;;;;;;5072311;28;20068;-88
2021/05/14 10:31:04;;;;;;;6.68;5.65;;;17.40;80.90;;;;;;5058414;28;20040;-87
2021/05/14 10:33:46;;;;;;;7.57;5.53;;;17.30;81.90;;;;;;5075165;28;20089;-88
2021/05/14 10:36:38;;;;;;;6.22;5.47;;;17.30;83.30;;;;;;5076164;28;20311;-89
2021/05/14 10:39:16;;;;;;;5.68;4.88;;;17.30;81.70;;;;;;5075801;28;20119;-88
2021/05/14 10:42:05;;;;;;;8.48;5.55;;;17.20;81.00;;;;;;5058506;28;20058;-89
2021/05/14 10:44:47;;;;;;;10.68;5.80;;;17.00;83.00;;;;;;5075864;28;20048;-89
2021/05/14 10:47:38;;;;;;;10.20;6.30;;;16.90;81.50;;;;;;5057877;28;20404;-90
2021/05/14 10:50:13;;;;;;;8.77;5.53;;;16.80;82.50;;;;;;5051709;28;20297;-89
2021/05/14 10:53:16;;;;;;;8.38;5.78;;;16.70;83.40;;;;;;5070857;28;20036;-89
2021/05/14 10:55:42;;;;;;;9.63;6.45;;;16.70;84.00;;;;;;5078292;28;20056;-89
2021/05/14 10:58:08;;;;;;;7.53;6.10;;;16.60;85.10;;;;;;5074886;28;20036;-89
2021/05/14 11:00:37;;;;;;;7.88;6.60;;;16.50;86.50;;;;;;5057853;28;20071;-89
2021/05/14 11:03:21;;;;;;;8.57;5.93;;;16.50;87.90;;;;;;5059109;28;20465;-89
2021/05/14 11:05:48;;;;;;;8.80;6.82;;;16.40;89.40;;;;;;5058226;28;20062;-88
2021/05/14 11:08:33;;;;;;;7.47;6.60;;;16.40;88.90;;;;;;5058766;28;20411;-91
2021/05/14 11:11:00;;;;;;;7.85;6.20;;;16.40;88.40;;;;;;5058822;28;20041;-91
2021/05/14 11:13:48;;;;;;;7.95;6.75;;;16.30;89.80;;;;;;5060343;28;20043;-90
2021/05/14 11:16:39;;;;;;;10.70;5.07;;;16.30;90.60;;;;;;5059265;28;20453;-89
2021/05/14 11:19:23;;;;;;;6.25;3.70;;;16.20;84.80;;;;;;5058393;28;20032;-89
2021/05/14 11:21:55;;;;;;;5.20;4.70;;;16.10;84.60;;;;;;5074218;28;20044;-89
2021/05/14 11:24:28;;;;;;;;;;;16.00;88.70;;;;;;5077115;28;20384;-88
2021/05/14 11:27:05;;;;;;;4.53;3.75;;;16.00;88.80;;;;;;5060853;28;19908;-88
2021/05/14 11:29:33;;;;;;;8.27;4.68;;;15.90;87.80;;;;;;5059853;28;20431;-88
2021/05/14 11:32:18;;;;;;;6.35;5.72;;;15.90;89.40;;;;;;5078998;28;20384;-88
2021/05/14 11:34:57;;;;;;;6.43;4.70;;;15.80;90.20;;;;;;5078335;28;20102;-88
2021/05/14 11:37:28;;;;;;;5.68;4.20;;;15.70;89.60;;;;;;5047785;28;20037;-89
2021/05/14 11:39:54;;;;;;;8.40;5.38;;;15.70;89.80;;;;;;5043372;28;20118;-88
2021/05/14 11:42:27;;;;;;;8.25;6.13;;;15.60;90.70;;;;;;5054266;28;20040;-93
2021/05/14 11:45:06;;;;;;;5.30;4.72;;;15.50;91.40;;;;;;5055327;28;20470;-90
2021/05/14 11:47:33;;;;;;;4.38;3.75;;;15.40;90.80;;;;;;5078895;28;20075;-90
2021/05/14 11:49:59;;;;;;;7.07;5.20;;;15.40;91.40;;;;;;5061918;28;20075;-89
2021/05/14 11:52:44;;;;;;;11.55;5.88;;;15.30;91.50;;;;;;5061828;28;20037;-89
2021/05/14 11:55:15;;;;;;;5.95;4.80;;;15.40;92.00;;;;;;5053851;28;20033;-90
2021/05/14 11:57:56;;;;;;;4.93;4.35;;;15.40;91.70;;;;;;5050126;28;20036;-89
2021/05/14 12:00:33;;;;;;;6.50;4.55;;;15.40;91.50;;;;;;5041899;28;20378;-88
2021/05/14 12:03:02;;;;;;;6.30;4.50;;;15.40;91.60;;;;;;5054823;28;20115;-88
2021/05/14 12:05:28;;;;;;;6.60;5.10;;;15.40;91.80;;;;;;5057917;28;20033;-88
2021/05/14 12:08:14;;;;;;;10.05;5.95;;;15.40;91.50;;;;;;5055467;28;20045;-89
2021/05/14 12:10:53;;;;;;;5.78;4.85;;;15.40;91.90;;;;;;5051605;28;20414;-88
2021/05/14 12:13:21;;;;;;;7.82;5.07;;;15.40;92.10;;;;;;5058341;28;20041;-88
2021/05/14 12:16:03;;;;;;;6.88;4.30;;;15.40;92.50;;;;;;5075728;28;20040;-88
2021/05/14 12:18:36;;;;;;;5.40;4.47;;;15.40;92.70;;;;;;5065223;28;20085;-88
2021/05/14 12:21:06;;;;;;;5.75;4.78;;;15.40;92.30;;;;;;5072489;28;20064;-86
2021/05/14 12:23:32;;;;;;;9.07;4.10;;;15.50;92.40;;;;;;5074448;28;20119;-85
2021/05/14 12:26:00;;;;;;;5.40;4.50;;;15.60;92.10;;;;;;5077620;28;20132;-85
2021/05/14 12:28:45;;;;;;;8.93;4.90;;;15.80;92.30;;;;;;5048104;28;20408;-87
2021/05/14 12:31:11;;;;;;;6.28;4.50;;;16.00;92.70;;;;;;5062965;28;20127;-89
2021/05/14 12:33:59;;;;;;;4.85;4.22;;;16.20;91.40;;;;;;5047462;28;20115;-92
2021/05/14 12:40:18;;;;;;;8.77;4.38;;;16.40;90.90;;;;;;5062787;28;20280;-90
2021/05/14 12:43:16;;;;;;;5.28;4.53;;;16.50;90.50;;;;;;5041765;28;20037;-91
2021/05/14 12:49:48;;;;;;;7.10;4.32;;;16.40;90.70;;;;;;5055932;28;20040;-91
2021/05/14 12:52:30;;;;;;;7.32;4.25;;;16.40;90.30;;;;;;5059243;28;20287;-91
2021/05/14 12:55:28;;;;;;;7.80;4.22;;;16.30;90.40;;;;;;5060853;28;20040;-91
2021/05/14 12:58:01;;;;;;;5.75;4.63;;;16.20;90.40;;;;;;5044402;28;20049;-91
2021/05/14 13:00:29;;;;;;;6.43;4.95;;;16.10;90.70;;;;;;5061177;28;20044;-90
2021/05/14 13:03:07;;;;;;;6.85;4.97;;;16.10;91.40;;;;;;5063558;28;20369;-91
2021/05/14 13:06:41;;;;;;;8.35;6.10;;;15.90;91.00;;;;;;5057205;28;20032;-91